createdAt,value
2017-02-02T00:00:25.240Z,13.86
2017-02-02T00:01:05.732Z,14.05
2017-02-02T00:01:46.217Z,13.96
2017-02-02T00:02:26.711Z,13.96
2017-02-02T00:03:07.200Z,13.95
2017-02-02T00:03:47.713Z,13.96
2017-02-02T00:04:28.204Z,13.96
2017-02-02T00:05:08.702Z,14.05
2017-02-02T00:05:49.197Z,14.04
2017-02-02T00:06:29.691Z,14.05
2017-02-02T00:07:10.187Z,13.96
2017-02-02T00:07:50.684Z,13.96
2017-02-02T00:08:31.179Z,13.86
2017-02-02T00:09:11.678Z,13.85
2017-02-02T00:09:52.170Z,13.96
2017-02-02T00:10:32.665Z,14.05
2017-02-02T00:11:13.167Z,13.86
2017-02-02T00:11:53.644Z,14.15
2017-02-02T00:12:34.148Z,13.86
2017-02-02T00:13:14.641Z,13.67
2017-02-02T00:13:55.134Z,13.67
2017-02-02T00:14:35.641Z,13.57
2017-02-02T00:15:16.150Z,13.67
2017-02-02T00:15:56.642Z,13.76
2017-02-02T00:16:37.143Z,13.86
2017-02-02T00:17:17.633Z,13.85
2017-02-02T00:17:58.138Z,14.15
2017-02-02T00:18:38.629Z,13.96
2017-02-02T00:19:19.119Z,13.95
2017-02-02T00:19:59.607Z,13.86
2017-02-02T00:20:40.105Z,14.04
2017-02-02T00:21:20.608Z,13.96
2017-02-02T00:22:01.107Z,13.67
2017-02-02T00:22:41.598Z,13.86
2017-02-02T00:23:22.085Z,13.96
2017-02-02T00:24:02.585Z,14.04
2017-02-02T00:24:43.074Z,14.05
2017-02-02T00:25:23.571Z,13.95
2017-02-02T00:26:04.067Z,13.95
2017-02-02T00:26:44.600Z,13.95
2017-02-02T00:27:25.084Z,13.95
2017-02-02T00:28:05.583Z,13.95
2017-02-02T00:28:46.075Z,13.96
2017-02-02T00:29:26.565Z,14.04
2017-02-02T00:30:07.054Z,14.05
2017-02-02T00:30:47.546Z,13.95
2017-02-02T00:31:28.044Z,13.85
2017-02-02T00:32:08.540Z,14.04
2017-02-02T00:32:49.031Z,13.85
2017-02-02T00:33:29.519Z,13.85
2017-02-02T00:34:10.015Z,14.04
2017-02-02T00:34:50.512Z,13.57
2017-02-02T00:35:31.011Z,13.48
2017-02-02T00:36:11.513Z,14.05
2017-02-02T00:36:52.023Z,13.57
2017-02-02T00:37:32.516Z,13.66
2017-02-02T00:38:13.024Z,13.86
2017-02-02T00:38:53.513Z,13.96
2017-02-02T00:39:34.005Z,13.67
2017-02-02T00:40:14.493Z,13.66
2017-02-02T00:40:54.989Z,13.67
2017-02-02T00:41:35.481Z,13.67
2017-02-02T00:42:15.972Z,13.76
2017-02-02T00:42:56.467Z,13.76
2017-02-02T00:43:36.959Z,13.67
2017-02-02T00:44:17.453Z,13.96
2017-02-02T00:44:57.953Z,14.14
2017-02-02T00:45:38.451Z,13.86
2017-02-02T00:46:18.955Z,13.67
2017-02-02T00:46:59.456Z,13.57
2017-02-02T00:47:39.953Z,13.48
2017-02-02T00:48:20.446Z,13.57
2017-02-02T00:49:00.930Z,13.96
2017-02-02T00:49:41.422Z,13.48
2017-02-02T00:50:21.937Z,13.67
2017-02-02T00:51:02.429Z,13.47
2017-02-02T00:51:42.925Z,13.57
2017-02-02T00:52:23.418Z,13.56
2017-02-02T00:53:03.918Z,13.56
2017-02-02T00:53:44.413Z,13.56
2017-02-02T00:54:24.906Z,13.76
2017-02-02T00:55:05.402Z,13.96
2017-02-02T00:55:45.901Z,13.95
2017-02-02T00:56:26.395Z,13.96
2017-02-02T00:57:06.905Z,14.04
2017-02-02T00:57:47.391Z,14.14
2017-02-02T00:58:27.886Z,13.67
2017-02-02T00:59:08.383Z,13.85
2017-02-02T00:59:48.869Z,13.85
2017-02-02T01:00:29.361Z,13.85
2017-02-02T01:01:09.846Z,13.56
2017-02-02T01:01:50.345Z,13.56
2017-02-02T01:02:30.845Z,13.48
2017-02-02T01:03:11.357Z,13.48
2017-02-02T01:03:51.837Z,13.57
2017-02-02T01:04:32.332Z,13.57
2017-02-02T01:05:12.833Z,13.47
2017-02-02T01:05:53.316Z,13.48
2017-02-02T01:06:33.809Z,13.57
2017-02-02T01:07:14.298Z,13.57
2017-02-02T01:07:54.797Z,13.48
2017-02-02T01:08:35.294Z,13.56
2017-02-02T01:09:15.788Z,13.95
2017-02-02T01:09:56.281Z,14.04
2017-02-02T01:10:36.777Z,14.04
2017-02-02T01:11:17.274Z,13.66
2017-02-02T01:11:57.756Z,13.76
2017-02-02T01:12:38.251Z,13.85
2017-02-02T01:13:18.825Z,13.76
2017-02-02T01:13:59.324Z,13.95
2017-02-02T01:14:39.821Z,13.76
2017-02-02T01:15:20.334Z,13.76
2017-02-02T01:16:00.823Z,14.04
2017-02-02T01:16:41.317Z,13.66
2017-02-02T01:17:21.821Z,13.95
2017-02-02T01:18:02.303Z,13.95
2017-02-02T01:18:42.795Z,14.04
2017-02-02T01:19:23.282Z,13.95
2017-02-02T01:20:03.777Z,13.85
2017-02-02T01:20:44.273Z,13.66
2017-02-02T01:21:24.773Z,13.57
2017-02-02T01:22:05.251Z,13.37
2017-02-02T01:22:45.744Z,13.66
2017-02-02T01:23:26.237Z,13.95
2017-02-02T01:24:06.725Z,13.95
2017-02-02T01:24:47.221Z,13.85
2017-02-02T01:25:27.713Z,13.66
2017-02-02T01:26:08.230Z,13.76
2017-02-02T01:26:48.720Z,13.76
2017-02-02T01:27:29.219Z,13.57
2017-02-02T01:28:09.714Z,13.56
2017-02-02T01:28:50.210Z,13.48
2017-02-02T01:29:30.709Z,13.67
2017-02-02T01:30:11.211Z,13.57
2017-02-02T01:30:51.708Z,13.56
2017-02-02T01:31:32.200Z,13.56
2017-02-02T01:32:12.688Z,13.56
2017-02-02T01:32:53.184Z,13.95
2017-02-02T01:33:33.679Z,13.57
2017-02-02T01:34:14.165Z,13.47
2017-02-02T01:34:54.669Z,13.56
2017-02-02T01:35:35.158Z,13.95
2017-02-02T01:36:15.653Z,14.14
2017-02-02T01:36:56.134Z,13.85
2017-02-02T01:37:36.629Z,14.04
2017-02-02T01:38:17.138Z,13.95
2017-02-02T01:38:57.633Z,13.47
2017-02-02T01:39:38.124Z,13.57
2017-02-02T01:40:18.616Z,13.37
2017-02-02T01:40:59.107Z,13.56
2017-02-02T01:41:39.605Z,13.56
2017-02-02T01:42:20.089Z,13.67
2017-02-02T01:43:00.586Z,13.76
2017-02-02T01:43:41.074Z,13.67
2017-02-02T01:44:21.562Z,13.67
2017-02-02T01:45:02.045Z,13.48
2017-02-02T01:45:42.537Z,13.66
2017-02-02T01:46:23.037Z,13.56
2017-02-02T01:47:03.518Z,13.47
2017-02-02T01:47:44.005Z,13.47
2017-02-02T01:48:24.503Z,13.85
2017-02-02T01:49:04.994Z,13.95
2017-02-02T01:49:45.484Z,13.48
2017-02-02T01:50:25.984Z,13.56
2017-02-02T01:51:06.479Z,13.56
2017-02-02T01:51:46.976Z,13.57
2017-02-02T01:52:27.486Z,13.56
2017-02-02T01:53:07.977Z,13.47
2017-02-02T01:53:48.471Z,13.66
2017-02-02T01:54:28.965Z,13.56
2017-02-02T01:55:09.456Z,13.56
2017-02-02T01:55:49.955Z,13.47
2017-02-02T01:56:30.466Z,13.56
2017-02-02T01:57:10.932Z,13.47
2017-02-02T01:57:51.434Z,13.67
2017-02-02T01:58:31.926Z,13.66
2017-02-02T01:59:12.415Z,13.57
2017-02-02T01:59:52.920Z,13.76
2017-02-02T02:00:33.421Z,13.47
2017-02-02T02:01:13.920Z,13.48
2017-02-02T02:01:54.407Z,13.56
2017-02-02T02:02:34.905Z,13.48
2017-02-02T02:03:15.403Z,13.76
2017-02-02T02:03:55.894Z,13.56
2017-02-02T02:04:36.386Z,13.57
2017-02-02T02:05:16.878Z,13.66
2017-02-02T02:05:57.372Z,13.57
2017-02-02T02:06:37.883Z,13.56
2017-02-02T02:07:18.368Z,13.56
2017-02-02T02:07:58.874Z,13.56
2017-02-02T02:08:39.366Z,13.56
2017-02-02T02:09:19.885Z,13.56
2017-02-02T02:10:00.376Z,13.56
2017-02-02T02:10:40.872Z,13.47
2017-02-02T02:11:21.363Z,13.66
2017-02-02T02:12:01.858Z,13.56
2017-02-02T02:12:42.357Z,13.47
2017-02-02T02:13:22.856Z,13.47
2017-02-02T02:14:03.395Z,13.47
2017-02-02T02:16:01.095Z,13.56
2017-02-02T02:16:41.575Z,13.56
2017-02-02T02:17:22.071Z,13.56
2017-02-02T02:18:02.566Z,13.66
2017-02-02T02:18:43.066Z,13.66
2017-02-02T02:19:23.564Z,13.47
2017-02-02T02:20:04.060Z,13.48
2017-02-02T02:20:44.558Z,13.67
2017-02-02T02:21:25.043Z,13.56
2017-02-02T02:22:05.531Z,13.47
2017-02-02T02:22:46.023Z,13.56
2017-02-02T02:23:26.519Z,13.47
2017-02-02T02:24:07.009Z,13.56
2017-02-02T02:24:47.495Z,13.66
2017-02-02T02:25:27.993Z,13.47
2017-02-02T02:26:08.492Z,13.47
2017-02-02T02:26:48.978Z,13.56
2017-02-02T02:27:29.483Z,13.37
2017-02-02T02:28:09.969Z,13.57
2017-02-02T02:28:50.456Z,13.48
2017-02-02T02:29:30.944Z,13.95
2017-02-02T02:30:11.437Z,13.56
2017-02-02T02:30:51.927Z,13.47
2017-02-02T02:31:32.414Z,13.95
2017-02-02T02:32:12.903Z,13.67
2017-02-02T02:32:53.389Z,13.56
2017-02-02T02:33:33.875Z,13.56
2017-02-02T02:34:14.370Z,13.56
2017-02-02T02:34:54.865Z,13.47
2017-02-02T02:35:35.350Z,13.56
2017-02-02T02:36:15.844Z,13.56
2017-02-02T02:36:56.337Z,13.47
2017-02-02T02:37:36.818Z,13.66
2017-02-02T02:38:17.308Z,13.57
2017-02-02T02:38:57.801Z,13.47
2017-02-02T02:39:38.299Z,13.47
2017-02-02T02:40:18.794Z,13.57
2017-02-02T02:40:59.287Z,13.57
2017-02-02T02:41:39.784Z,13.66
2017-02-02T02:42:20.308Z,13.47
2017-02-02T02:43:00.783Z,13.95
2017-02-02T02:43:41.294Z,13.37
2017-02-02T02:44:21.790Z,14.04
2017-02-02T02:45:02.277Z,13.47
2017-02-02T02:45:42.764Z,13.47
2017-02-02T02:46:23.259Z,13.48
2017-02-02T02:47:03.748Z,13.47
2017-02-02T02:47:44.234Z,13.57
2017-02-02T02:48:24.724Z,13.56
2017-02-02T02:49:05.232Z,13.56
2017-02-02T02:49:45.723Z,13.56
2017-02-02T02:50:26.210Z,13.47
2017-02-02T02:51:06.710Z,13.56
2017-02-02T02:51:47.197Z,13.56
2017-02-02T02:52:27.682Z,13.56
2017-02-02T02:53:08.183Z,13.47
2017-02-02T02:53:48.674Z,13.56
2017-02-02T02:54:29.174Z,13.56
2017-02-02T02:55:09.692Z,13.67
2017-02-02T02:55:50.186Z,13.66
2017-02-02T02:56:30.674Z,13.47
2017-02-02T02:57:11.172Z,13.57
2017-02-02T02:57:51.669Z,13.76
2017-02-02T02:58:32.162Z,13.47
2017-02-02T02:59:12.653Z,13.66
2017-02-02T02:59:53.148Z,13.66
2017-02-02T03:00:33.635Z,13.66
2017-02-02T03:01:14.125Z,13.66
2017-02-02T03:01:54.615Z,13.47
2017-02-02T03:02:35.094Z,13.56
2017-02-02T03:03:15.593Z,13.56
2017-02-02T03:03:56.080Z,13.56
2017-02-02T03:04:36.570Z,13.66
2017-02-02T03:05:17.061Z,13.47
2017-02-02T03:05:57.560Z,13.76
2017-02-02T03:06:38.040Z,13.76
2017-02-02T03:07:18.535Z,13.76
2017-02-02T03:07:59.033Z,13.85
2017-02-02T03:08:39.527Z,13.85
2017-02-02T03:09:20.018Z,13.56
2017-02-02T03:10:00.517Z,13.37
2017-02-02T03:10:41.005Z,13.37
2017-02-02T03:11:21.493Z,13.66
2017-02-02T03:12:01.977Z,13.95
2017-02-02T03:12:42.464Z,13.48
2017-02-02T03:13:22.973Z,13.66
2017-02-02T03:14:03.460Z,13.37
2017-02-02T03:14:43.962Z,13.56
2017-02-02T03:15:24.450Z,13.56
2017-02-02T03:16:04.946Z,13.56
2017-02-02T03:16:45.450Z,13.47
2017-02-02T03:17:25.944Z,13.47
2017-02-02T03:18:06.426Z,13.66
2017-02-02T03:18:46.913Z,13.37
2017-02-02T03:19:27.408Z,13.66
2017-02-02T03:20:07.898Z,13.66
2017-02-02T03:20:48.392Z,13.76
2017-02-02T03:21:28.890Z,13.47
2017-02-02T03:22:09.389Z,13.47
2017-02-02T03:22:49.888Z,13.47
2017-02-02T03:23:30.390Z,13.95
2017-02-02T03:24:10.880Z,13.56
2017-02-02T03:24:51.368Z,13.56
2017-02-02T03:25:31.862Z,13.85
2017-02-02T03:26:12.352Z,13.95
2017-02-02T03:26:52.847Z,13.47
2017-02-02T03:27:33.337Z,13.56
2017-02-02T03:28:13.832Z,13.56
2017-02-02T03:28:54.336Z,13.47
2017-02-02T03:29:34.831Z,13.56
2017-02-02T03:30:15.326Z,13.47
2017-02-02T03:30:55.852Z,13.56
2017-02-02T03:31:36.324Z,13.47
2017-02-02T03:32:16.841Z,13.47
2017-02-02T03:32:57.332Z,13.66
2017-02-02T03:33:37.821Z,13.47
2017-02-02T03:34:18.316Z,13.66
2017-02-02T03:34:58.806Z,13.56
2017-02-02T03:35:39.302Z,13.56
2017-02-02T03:36:19.793Z,13.56
2017-02-02T03:37:00.285Z,13.85
2017-02-02T03:37:40.777Z,13.56
2017-02-02T03:38:21.269Z,13.56
2017-02-02T03:39:01.761Z,13.37
2017-02-02T03:39:42.267Z,13.47
2017-02-02T03:40:22.748Z,13.56
2017-02-02T03:41:03.246Z,13.56
2017-02-02T03:41:43.739Z,13.56
2017-02-02T03:42:24.232Z,13.95
2017-02-02T03:43:04.717Z,13.56
2017-02-02T03:43:45.196Z,13.37
2017-02-02T03:44:25.694Z,13.47
2017-02-02T03:45:06.184Z,14.04
2017-02-02T03:45:46.668Z,13.56
2017-02-02T03:46:27.174Z,13.47
2017-02-02T03:47:07.667Z,13.56
2017-02-02T03:47:48.182Z,13.67
2017-02-02T03:48:28.662Z,13.76
2017-02-02T03:49:09.158Z,13.66
2017-02-02T03:49:49.641Z,13.56
2017-02-02T03:50:30.137Z,13.66
2017-02-02T03:51:10.628Z,13.56
2017-02-02T03:51:51.117Z,13.66
2017-02-02T03:52:31.607Z,13.66
2017-02-02T03:53:12.105Z,13.66
2017-02-02T03:53:52.601Z,13.56
2017-02-02T03:54:33.102Z,13.47
2017-02-02T03:55:13.585Z,13.95
2017-02-02T03:55:54.073Z,13.47
2017-02-02T03:56:34.568Z,13.56
2017-02-02T03:57:15.060Z,13.66
2017-02-02T03:57:55.554Z,13.66
2017-02-02T03:58:36.059Z,13.66
2017-02-02T03:59:16.549Z,13.56
2017-02-02T03:59:57.047Z,13.56
2017-02-02T04:00:37.540Z,13.56
2017-02-02T04:01:18.047Z,13.66
2017-02-02T04:01:58.540Z,13.37
2017-02-02T04:02:39.057Z,13.56
2017-02-02T04:03:19.546Z,13.66
2017-02-02T04:04:00.042Z,13.66
2017-02-02T04:04:40.539Z,13.47
2017-02-02T04:05:21.040Z,13.47
2017-02-02T04:06:01.528Z,13.85
2017-02-02T04:06:42.018Z,13.37
2017-02-02T04:07:22.515Z,13.56
2017-02-02T04:08:02.991Z,13.28
2017-02-02T04:08:43.484Z,13.56
2017-02-02T04:09:23.978Z,13.56
2017-02-02T04:10:04.468Z,13.56
2017-02-02T04:10:44.955Z,13.56
2017-02-02T04:11:25.442Z,13.56
2017-02-02T04:12:05.945Z,13.47
2017-02-02T04:12:46.435Z,13.47
2017-02-02T04:13:26.926Z,13.56
2017-02-02T04:14:07.429Z,13.56
2017-02-02T04:14:47.913Z,13.56
2017-02-02T04:15:28.406Z,13.56
2017-02-02T04:16:08.889Z,13.56
2017-02-02T04:16:49.382Z,13.47
2017-02-02T04:17:29.874Z,13.56
2017-02-02T04:18:10.378Z,13.56
2017-02-02T04:18:50.872Z,13.66
2017-02-02T04:19:31.387Z,13.85
2017-02-02T04:20:11.882Z,13.95
2017-02-02T04:20:52.425Z,13.76
2017-02-02T04:21:32.910Z,13.95
2017-02-02T04:22:13.400Z,14.14
2017-02-02T04:22:53.893Z,13.95
2017-02-02T04:23:34.383Z,13.95
2017-02-02T04:24:14.874Z,13.37
2017-02-02T04:24:55.370Z,13.66
2017-02-02T04:25:35.854Z,13.56
2017-02-02T04:26:16.348Z,13.67
2017-02-02T04:26:56.839Z,13.66
2017-02-02T04:27:37.333Z,13.56
2017-02-02T04:28:17.831Z,13.47
2017-02-02T04:28:58.318Z,13.56
2017-02-02T04:29:38.802Z,13.47
2017-02-02T04:30:19.294Z,13.47
2017-02-02T04:30:59.792Z,13.56
2017-02-02T04:31:40.280Z,13.66
2017-02-02T04:32:20.763Z,13.66
2017-02-02T04:33:01.272Z,13.85
2017-02-02T04:33:41.761Z,13.37
2017-02-02T04:34:22.256Z,13.56
2017-02-02T04:35:02.748Z,13.56
2017-02-02T04:35:43.239Z,13.66
2017-02-02T04:36:23.730Z,13.95
2017-02-02T04:37:04.242Z,13.85
2017-02-02T04:37:44.714Z,13.66
2017-02-02T04:38:25.210Z,13.66
2017-02-02T04:39:05.719Z,13.37
2017-02-02T04:39:46.204Z,13.56
2017-02-02T04:40:26.701Z,13.56
2017-02-02T04:41:07.200Z,13.47
2017-02-02T04:41:47.685Z,13.56
2017-02-02T04:42:28.178Z,14.14
2017-02-02T04:43:08.663Z,13.37
2017-02-02T04:43:49.157Z,13.47
2017-02-02T04:44:29.648Z,13.47
2017-02-02T04:45:10.142Z,13.47
2017-02-02T04:45:50.624Z,13.56
2017-02-02T04:46:31.105Z,13.47
2017-02-02T04:47:11.609Z,13.56
2017-02-02T04:47:52.095Z,13.56
2017-02-02T04:48:32.579Z,13.47
2017-02-02T04:49:13.068Z,13.56
2017-02-02T04:49:53.550Z,13.95
2017-02-02T04:50:34.052Z,13.56
2017-02-02T04:51:14.543Z,13.56
2017-02-02T04:51:55.042Z,13.47
2017-02-02T04:52:35.540Z,13.66
2017-02-02T04:53:16.053Z,13.56
2017-02-02T04:53:56.543Z,13.76
2017-02-02T04:54:37.052Z,13.56
2017-02-02T04:55:17.537Z,13.37
2017-02-02T04:55:58.031Z,13.85
2017-02-02T04:56:38.535Z,13.37
2017-02-02T04:57:19.022Z,13.47
2017-02-02T04:57:59.509Z,13.56
2017-02-02T04:58:39.999Z,13.47
2017-02-02T04:59:20.503Z,13.56
2017-02-02T05:00:00.991Z,13.56
2017-02-02T05:00:41.490Z,13.56
2017-02-02T05:01:21.978Z,13.66
2017-02-02T05:02:02.478Z,13.76
2017-02-02T05:02:42.967Z,14.04
2017-02-02T05:03:23.458Z,13.95
2017-02-02T05:04:03.946Z,13.47
2017-02-02T05:04:44.436Z,13.47
2017-02-02T05:05:24.934Z,13.56
2017-02-02T05:06:05.426Z,13.47
2017-02-02T05:06:45.932Z,13.56
2017-02-02T05:07:26.425Z,13.37
2017-02-02T05:08:06.928Z,13.85
2017-02-02T05:08:47.421Z,13.76
2017-02-02T05:09:27.913Z,13.66
2017-02-02T05:10:08.413Z,13.47
2017-02-02T05:10:48.900Z,13.66
2017-02-02T05:11:29.393Z,13.56
2017-02-02T05:12:09.871Z,13.56
2017-02-02T05:12:50.379Z,13.76
2017-02-02T05:13:30.868Z,13.56
2017-02-02T05:14:11.364Z,13.56
2017-02-02T05:14:51.865Z,13.47
2017-02-02T05:15:32.380Z,13.47
2017-02-02T05:16:12.874Z,13.56
2017-02-02T05:16:53.373Z,13.56
2017-02-02T05:17:33.867Z,13.47
2017-02-02T05:18:14.372Z,13.47
2017-02-02T05:18:54.865Z,13.47
2017-02-02T05:19:35.359Z,13.47
2017-02-02T05:20:15.838Z,13.47
2017-02-02T05:20:56.340Z,13.47
2017-02-02T05:21:36.833Z,13.66
2017-02-02T05:22:17.326Z,13.66
2017-02-02T05:22:57.832Z,13.66
2017-02-02T05:25:15.807Z,13.47
2017-02-02T05:25:56.303Z,13.47
2017-02-02T05:26:36.795Z,13.47
2017-02-02T05:27:17.291Z,13.56
2017-02-02T05:27:57.794Z,13.56
2017-02-02T05:28:38.292Z,13.56
2017-02-02T05:29:18.788Z,13.56
2017-02-02T05:29:59.297Z,13.47
2017-02-02T05:30:39.796Z,13.56
2017-02-02T05:31:20.294Z,13.95
2017-02-02T05:32:00.789Z,13.66
2017-02-02T05:32:41.289Z,13.56
2017-02-02T05:33:21.780Z,13.47
2017-02-02T05:34:02.294Z,13.56
2017-02-02T05:34:42.781Z,13.95
2017-02-02T05:35:23.287Z,13.56
2017-02-02T05:36:03.784Z,13.47
2017-02-02T05:36:44.266Z,13.56
2017-02-02T05:37:24.753Z,13.56
2017-02-02T05:38:05.241Z,13.37
2017-02-02T05:38:45.734Z,13.56
2017-02-02T05:39:26.225Z,13.85
2017-02-02T05:40:06.709Z,14.14
2017-02-02T05:40:47.196Z,14.14
2017-02-02T05:41:27.680Z,14.14
2017-02-02T05:42:08.166Z,13.66
2017-02-02T05:42:48.665Z,13.85
2017-02-02T05:43:29.162Z,13.95
2017-02-02T05:44:09.645Z,13.76
2017-02-02T05:44:50.134Z,14.14
2017-02-02T05:45:30.632Z,14.14
2017-02-02T05:46:11.122Z,13.66
2017-02-02T05:46:51.610Z,14.04
2017-02-02T05:47:32.111Z,14.14
2017-02-02T05:48:12.591Z,14.04
2017-02-02T05:48:53.078Z,14.04
2017-02-02T05:49:33.568Z,13.95
2017-02-02T05:50:14.078Z,13.85
2017-02-02T05:50:54.563Z,13.56
2017-02-02T05:51:35.024Z,13.47
2017-02-02T05:52:15.517Z,13.47
2017-02-02T05:52:56.006Z,13.47
2017-02-02T05:53:36.505Z,13.37
2017-02-02T05:54:17.005Z,13.95
2017-02-02T05:54:57.495Z,13.85
2017-02-02T05:55:37.982Z,14.14
2017-02-02T05:56:18.477Z,13.66
2017-02-02T05:56:58.976Z,13.85
2017-02-02T05:57:39.471Z,13.56
2017-02-02T05:58:19.972Z,13.85
2017-02-02T05:59:00.451Z,13.76
2017-02-02T05:59:40.939Z,13.85
2017-02-02T06:00:21.426Z,13.85
2017-02-02T06:01:01.925Z,13.66
2017-02-02T06:01:42.415Z,13.66
2017-02-02T06:02:22.898Z,13.66
2017-02-02T06:03:03.389Z,13.66
2017-02-02T06:03:43.899Z,13.76
2017-02-02T06:04:24.390Z,13.66
2017-02-02T06:05:04.875Z,13.95
2017-02-02T06:05:45.376Z,14.04
2017-02-02T06:06:25.855Z,14.04
2017-02-02T06:07:06.342Z,14.04
2017-02-02T06:07:46.847Z,14.14
2017-02-02T06:08:27.341Z,14.04
2017-02-02T06:09:07.824Z,13.66
2017-02-02T06:09:48.315Z,13.85
2017-02-02T06:10:28.808Z,13.85
2017-02-02T06:11:09.300Z,14.04
2017-02-02T06:11:49.794Z,14.04
2017-02-02T06:12:30.290Z,14.04
2017-02-02T06:13:10.787Z,14.14
2017-02-02T06:13:51.278Z,13.95
2017-02-02T06:14:31.786Z,13.85
2017-02-02T06:15:12.281Z,13.85
2017-02-02T06:15:52.772Z,13.85
2017-02-02T06:16:33.258Z,13.66
2017-02-02T06:17:13.756Z,14.04
2017-02-02T06:17:54.261Z,13.85
2017-02-02T06:18:34.745Z,13.85
2017-02-02T06:19:15.226Z,13.95
2017-02-02T06:19:55.719Z,14.04
2017-02-02T06:20:36.212Z,14.04
2017-02-02T06:21:16.701Z,13.95
2017-02-02T06:21:57.188Z,13.85
2017-02-02T06:22:37.674Z,14.04
2017-02-02T06:23:18.168Z,13.85
2017-02-02T06:23:58.668Z,13.85
2017-02-02T06:24:39.154Z,14.04
2017-02-02T06:25:19.643Z,13.85
2017-02-02T06:26:00.132Z,13.95
2017-02-02T06:26:40.627Z,13.85
2017-02-02T06:27:21.117Z,14.04
2017-02-02T06:28:01.606Z,13.95
2017-02-02T06:28:42.106Z,13.95
2017-02-02T06:29:22.598Z,13.85
2017-02-02T06:30:03.085Z,13.76
2017-02-02T06:30:43.567Z,14.04
2017-02-02T06:31:24.060Z,13.95
2017-02-02T06:32:04.553Z,13.95
2017-02-02T06:32:45.062Z,13.95
2017-02-02T06:33:25.526Z,14.04
2017-02-02T06:34:06.021Z,13.95
2017-02-02T06:34:46.518Z,13.95
2017-02-02T06:35:27.006Z,13.95
2017-02-02T06:36:07.502Z,13.95
2017-02-02T06:36:47.983Z,13.85
2017-02-02T06:37:28.473Z,13.76
2017-02-02T06:38:08.979Z,14.04
2017-02-02T06:38:49.467Z,13.95
2017-02-02T06:39:29.960Z,13.85
2017-02-02T06:40:10.459Z,14.14
2017-02-02T06:40:50.964Z,13.95
2017-02-02T06:41:31.456Z,13.95
2017-02-02T06:42:11.956Z,13.85
2017-02-02T06:42:52.449Z,14.04
2017-02-02T06:43:32.943Z,14.04
2017-02-02T06:44:13.431Z,13.95
2017-02-02T06:44:53.925Z,13.95
2017-02-02T06:45:34.414Z,13.95
2017-02-02T06:46:14.904Z,13.95
2017-02-02T06:46:55.403Z,13.95
2017-02-02T06:47:35.893Z,13.95
2017-02-02T06:48:16.381Z,13.95
2017-02-02T06:48:56.868Z,13.95
2017-02-02T06:49:37.366Z,13.95
2017-02-02T06:50:17.861Z,13.95
2017-02-02T06:50:58.341Z,13.95
2017-02-02T06:51:38.836Z,13.85
2017-02-02T06:52:19.332Z,14.04
2017-02-02T06:52:59.813Z,13.66
2017-02-02T06:53:40.577Z,14.04
2017-02-02T06:54:21.028Z,13.95
2017-02-02T06:55:01.518Z,14.04
2017-02-02T06:55:42.016Z,14.04
2017-02-02T06:56:22.504Z,14.04
2017-02-02T06:57:03.112Z,13.95
2017-02-02T06:57:43.609Z,13.95
2017-02-02T06:58:24.107Z,13.95
2017-02-02T06:59:04.764Z,14.04
2017-02-02T06:59:45.277Z,14.04
2017-02-02T07:00:25.767Z,13.95
2017-02-02T07:01:06.257Z,13.95
2017-02-02T07:01:46.751Z,13.95
2017-02-02T07:02:27.245Z,13.95
2017-02-02T07:03:07.734Z,13.95
2017-02-02T07:03:48.227Z,13.85
2017-02-02T07:04:28.727Z,13.95
2017-02-02T07:05:09.242Z,14.14
2017-02-02T07:05:49.735Z,14.04
2017-02-02T07:06:30.227Z,14.04
2017-02-02T07:07:10.736Z,14.14
2017-02-02T07:07:51.229Z,13.95
2017-02-02T07:08:31.725Z,14.04
2017-02-02T07:09:12.223Z,14.14
2017-02-02T07:09:52.704Z,13.95
2017-02-02T07:10:33.201Z,13.85
2017-02-02T07:11:13.699Z,13.95
2017-02-02T07:11:54.193Z,14.04
2017-02-02T07:12:34.681Z,14.04
2017-02-02T07:13:15.173Z,13.95
2017-02-02T07:13:55.670Z,13.95
2017-02-02T07:14:36.151Z,13.95
2017-02-02T07:15:16.646Z,13.95
2017-02-02T07:15:57.141Z,13.95
2017-02-02T07:16:37.624Z,14.04
2017-02-02T07:17:18.128Z,14.04
2017-02-02T07:17:58.625Z,14.04
2017-02-02T07:18:39.109Z,13.95
2017-02-02T07:19:19.592Z,13.95
2017-02-02T07:20:00.092Z,14.04
2017-02-02T07:20:40.574Z,13.85
2017-02-02T07:21:21.064Z,13.76
2017-02-02T07:22:01.559Z,13.85
2017-02-02T07:22:42.056Z,13.95
2017-02-02T07:23:22.543Z,14.04
2017-02-02T07:24:03.053Z,13.95
2017-02-02T07:24:43.536Z,13.76
2017-02-02T07:25:24.037Z,13.85
2017-02-02T07:26:04.512Z,13.95
2017-02-02T07:26:45.027Z,13.95
2017-02-02T07:27:25.515Z,13.95
2017-02-02T07:28:06.002Z,14.04
2017-02-02T07:28:46.488Z,13.95
2017-02-02T07:29:26.973Z,13.95
2017-02-02T07:30:07.464Z,13.85
2017-02-02T07:30:47.951Z,13.95
2017-02-02T07:31:28.448Z,13.85
2017-02-02T07:32:08.927Z,13.85
2017-02-02T07:32:49.428Z,14.04
2017-02-02T07:33:29.920Z,13.95
2017-02-02T07:34:10.409Z,13.76
2017-02-02T07:34:50.905Z,13.85
2017-02-02T07:35:31.394Z,13.76
2017-02-02T07:36:11.889Z,13.85
2017-02-02T07:36:52.387Z,13.76
2017-02-02T07:37:32.874Z,13.95
2017-02-02T07:38:13.368Z,13.76
2017-02-02T07:38:53.863Z,13.95
2017-02-02T07:39:34.368Z,13.85
2017-02-02T07:40:14.872Z,13.95
2017-02-02T07:40:55.368Z,13.85
2017-02-02T07:41:35.861Z,13.85
2017-02-02T07:42:16.352Z,13.85
2017-02-02T07:42:56.839Z,14.04
2017-02-02T07:43:37.336Z,13.95
2017-02-02T07:44:17.823Z,13.85
2017-02-02T07:44:58.318Z,14.04
2017-02-02T07:45:38.810Z,13.76
2017-02-02T07:46:19.296Z,13.95
2017-02-02T07:46:59.794Z,13.76
2017-02-02T07:47:40.286Z,13.85
2017-02-02T07:48:20.779Z,13.66
2017-02-02T07:49:01.291Z,13.95
2017-02-02T07:49:41.767Z,13.76
2017-02-02T07:50:22.259Z,14.04
2017-02-02T07:51:02.745Z,14.04
2017-02-02T07:51:43.242Z,13.95
2017-02-02T07:52:23.729Z,13.85
2017-02-02T07:53:04.221Z,13.95
2017-02-02T07:53:44.715Z,13.66
2017-02-02T07:54:25.205Z,13.76
2017-02-02T07:55:05.692Z,13.85
2017-02-02T07:55:46.177Z,14.04
2017-02-02T07:56:26.667Z,14.14
2017-02-02T07:57:07.165Z,13.95
2017-02-02T07:57:47.684Z,13.95
2017-02-02T07:58:28.173Z,13.95
2017-02-02T07:59:08.670Z,13.95
2017-02-02T07:59:49.158Z,13.66
2017-02-02T08:00:29.664Z,13.85
2017-02-02T08:01:10.143Z,14.04
2017-02-02T08:01:50.640Z,14.04
2017-02-02T08:02:31.129Z,14.04
2017-02-02T08:03:11.619Z,14.04
2017-02-02T08:03:52.113Z,13.95
2017-02-02T08:04:32.610Z,14.04
2017-02-02T08:05:13.110Z,13.85
2017-02-02T08:05:53.615Z,13.95
2017-02-02T08:06:34.107Z,13.95
2017-02-02T08:07:14.595Z,14.04
2017-02-02T08:07:55.091Z,14.14
2017-02-02T08:08:35.587Z,14.14
2017-02-02T08:09:16.054Z,14.04
2017-02-02T08:09:56.572Z,13.95
2017-02-02T08:10:37.056Z,13.95
2017-02-02T08:11:17.556Z,13.85
2017-02-02T08:11:58.053Z,13.95
2017-02-02T08:12:38.550Z,13.95
2017-02-02T08:13:19.054Z,13.95
2017-02-02T08:13:59.547Z,13.85
2017-02-02T08:14:40.042Z,13.95
2017-02-02T08:15:20.547Z,13.85
2017-02-02T08:16:01.050Z,13.76
2017-02-02T08:16:41.601Z,13.85
2017-02-02T08:17:22.102Z,14.04
2017-02-02T08:18:02.600Z,14.04
2017-02-02T08:18:43.085Z,13.95
2017-02-02T08:19:23.632Z,14.04
2017-02-02T08:20:04.123Z,14.04
2017-02-02T08:20:44.631Z,14.04
2017-02-02T08:21:25.117Z,13.95
2017-02-02T08:22:05.609Z,13.95
2017-02-02T08:22:46.125Z,13.85
2017-02-02T08:23:26.621Z,13.95
2017-02-02T08:24:07.115Z,13.86
2017-02-02T08:24:47.602Z,14.04
2017-02-02T08:25:28.110Z,14.14
2017-02-02T08:26:08.611Z,13.85
2017-02-02T08:26:49.119Z,13.66
2017-02-02T08:27:29.609Z,13.67
2017-02-02T08:28:10.100Z,13.37
2017-02-02T08:28:50.590Z,13.76
2017-02-02T08:29:31.106Z,14.04
2017-02-02T08:30:11.589Z,14.04
2017-02-02T08:30:52.083Z,13.95
2017-02-02T08:31:32.579Z,14.14
2017-02-02T08:32:13.077Z,14.15
2017-02-02T08:32:53.574Z,14.14
2017-02-02T08:33:34.065Z,13.85
2017-02-02T08:34:14.557Z,13.76
2017-02-02T08:34:55.056Z,14.04
2017-02-02T08:35:35.547Z,14.04
2017-02-02T08:36:16.038Z,13.85
2017-02-02T08:36:56.550Z,13.85
2017-02-02T08:37:37.048Z,13.96
2017-02-02T08:38:17.542Z,13.57
2017-02-02T08:38:58.032Z,13.48
2017-02-02T08:39:38.530Z,13.57
2017-02-02T08:40:19.027Z,13.47
2017-02-02T08:40:59.509Z,13.57
2017-02-02T08:41:39.994Z,13.47
2017-02-02T08:42:20.484Z,13.66
2017-02-02T08:43:01.004Z,14.14
2017-02-02T08:43:41.483Z,13.95
2017-02-02T08:44:21.982Z,14.15